Time;durP1;ratioP1;P1;durP2;ratioP2;P2;SDS_P1;SDS_P2;PMS_P1;PMS_P2;Temp;Humidity;BMP_temperature;BMP_pressure;BME280_temperature;BME280_humidity;BME280_pressure;Samples;Min_cycle;Max_cycle;Signal;HPM_P1;HPM_P2
2022/11/08 00:03:49;;;;;;;4.53;1.33;;;15.60;86.20;;;;;;5044795;28;20040;-75
2022/11/08 00:14:27;;;;;;;4.53;1.10;;;15.60;86.20;;;;;;5064627;28;20078;-75
2022/11/08 00:16:52;;;;;;;3.88;1.15;;;15.60;86.00;;;;;;5059358;28;20021;-75
2022/11/08 00:19:18;;;;;;;3.45;0.98;;;15.70;85.90;;;;;;5064858;28;20501;-75
2022/11/08 00:21:43;;;;;;;4.03;1.40;;;15.60;85.60;;;;;;5063828;28;20024;-75
2022/11/08 00:24:09;;;;;;;2.50;1.05;;;15.70;85.50;;;;;;5053988;28;20559;-75
2022/11/08 00:26:34;;;;;;;4.53;1.17;;;15.70;85.30;;;;;;5044883;28;20029;-75
2022/11/08 00:29:00;;;;;;;2.75;1.08;;;15.70;85.50;;;;;;5060404;28;20540;-75
2022/11/08 00:31:25;;;;;;;2.10;0.95;;;15.70;85.80;;;;;;5060892;28;20083;-75
2022/11/08 00:33:51;;;;;;;3.53;1.10;;;15.60;85.90;;;;;;5048767;28;20416;-75
2022/11/08 00:36:16;;;;;;;5.10;1.27;;;15.70;86.00;;;;;;5047687;28;20038;-75
2022/11/08 00:38:43;;;;;;;5.05;1.17;;;15.60;86.00;;;;;;5066711;28;20496;-75
2022/11/08 00:41:10;;;;;;;3.17;1.30;;;15.60;86.00;;;;;;5068589;28;20086;-75
2022/11/08 00:43:35;;;;;;;4.13;1.13;;;15.60;86.00;;;;;;5068527;28;20110;-76
2022/11/08 00:46:01;;;;;;;4.07;1.30;;;15.60;86.10;;;;;;5068075;28;20028;-75
2022/11/08 00:48:26;;;;;;;2.67;0.90;;;15.60;86.20;;;;;;5068734;28;20032;-75
2022/11/08 00:50:52;;;;;;;4.28;1.20;;;15.60;86.20;;;;;;5068732;28;20027;-75
2022/11/08 00:53:17;;;;;;;3.47;0.90;;;15.60;86.30;;;;;;5067637;28;20091;-75
2022/11/08 00:55:43;;;;;;;2.35;1.00;;;15.50;86.20;;;;;;5068622;28;20032;-75
2022/11/08 00:58:08;;;;;;;4.10;1.05;;;15.60;86.30;;;;;;5067506;28;20045;-75
2022/11/08 01:00:34;;;;;;;2.88;1.00;;;15.50;86.20;;;;;;5064183;28;20373;-75
2022/11/08 01:03:17;;;;;;;2.83;1.17;;;15.60;86.30;;;;;;5063660;28;20043;-75
2022/11/08 01:05:43;;;;;;;4.40;1.10;;;15.50;86.10;;;;;;5065263;28;20031;-79
2022/11/08 01:08:10;;;;;;;3.30;1.20;;;15.60;86.40;;;;;;5072368;28;20028;-80
2022/11/08 01:10:36;;;;;;;2.88;0.98;;;15.60;86.30;;;;;;5072510;28;20027;-75
2022/11/08 01:13:02;;;;;;;3.63;1.10;;;15.50;86.30;;;;;;5067690;28;20669;-76
2022/11/08 01:15:28;;;;;;;3.75;1.20;;;15.50;86.10;;;;;;5065256;28;20090;-75
2022/11/08 01:17:53;;;;;;;3.65;1.10;;;15.50;86.20;;;;;;5063695;28;20058;-75
2022/11/08 01:20:19;;;;;;;2.97;1.08;;;15.60;85.90;;;;;;5069179;28;20033;-76
2022/11/08 01:22:44;;;;;;;3.17;1.10;;;15.60;86.00;;;;;;5047898;28;20028;-75
2022/11/08 01:25:10;;;;;;;2.63;1.08;;;15.60;86.00;;;;;;5048031;28;20056;-76
2022/11/08 01:27:35;;;;;;;5.30;1.70;;;15.60;85.70;;;;;;5063603;28;20446;-75
2022/11/08 01:30:01;;;;;;;2.63;1.10;;;15.60;85.70;;;;;;5048212;28;20111;-74
2022/11/08 01:32:26;;;;;;;3.10;1.20;;;15.60;85.70;;;;;;5066982;28;20059;-75
2022/11/08 01:34:52;;;;;;;2.08;1.00;;;15.60;85.20;;;;;;5066441;28;20119;-76
2022/11/08 01:37:17;;;;;;;4.47;1.20;;;15.60;85.20;;;;;;5067471;28;20500;-75
2022/11/08 01:39:43;;;;;;;2.53;1.10;;;15.60;85.70;;;;;;5054443;28;20036;-76
2022/11/08 01:42:08;;;;;;;2.70;1.00;;;15.60;86.00;;;;;;5048003;28;20061;-76
2022/11/08 01:44:57;;;;;;;2.88;1.08;;;15.60;86.00;;;;;;5046182;28;20100;-75
2022/11/08 01:47:23;;;;;;;3.75;1.00;;;15.60;86.10;;;;;;5047694;28;20017;-75
2022/11/08 01:49:52;;;;;;;3.22;0.95;;;15.60;86.10;;;;;;5063247;28;20027;-76
2022/11/08 01:52:25;;;;;;;2.45;1.00;;;15.60;86.20;;;;;;5047885;28;20195;-76
2022/11/08 01:55:06;;;;;;;2.80;1.20;;;15.60;86.10;;;;;;5061450;28;20503;-75
2022/11/08 01:57:34;;;;;;;;;;;15.50;86.10;;;;;;5059698;28;20802;-75
2022/11/08 02:00:04;;;;;;;2.58;1.00;;;15.50;86.10;;;;;;5048089;28;20449;-75
2022/11/08 02:02:31;;;;;;;3.45;1.10;;;15.50;86.20;;;;;;5065522;28;20554;-75
2022/11/08 02:04:57;;;;;;;3.28;1.13;;;15.50;86.20;;;;;;5061462;28;20083;-75
2022/11/08 02:07:24;;;;;;;3.13;1.15;;;15.50;86.20;;;;;;5058979;28;20033;-76
2022/11/08 02:09:50;;;;;;;3.65;1.17;;;15.50;85.90;;;;;;5063753;28;20518;-75
2022/11/08 02:12:19;;;;;;;4.70;1.20;;;15.50;86.20;;;;;;5065851;28;20037;-76
2022/11/08 02:14:45;;;;;;;2.47;1.00;;;15.40;86.00;;;;;;5067088;28;20086;-75
2022/11/08 02:17:10;;;;;;;1.80;0.85;;;15.50;85.90;;;;;;5048525;28;20037;-76
2022/11/08 02:19:45;;;;;;;2.88;1.00;;;15.50;85.90;;;;;;5061751;28;20028;-75
2022/11/08 02:22:36;;;;;;;3.30;1.05;;;15.50;86.10;;;;;;5048079;28;20059;-75
2022/11/08 02:25:01;;;;;;;2.92;1.15;;;15.60;86.20;;;;;;5055043;28;20158;-75
2022/11/08 02:27:27;;;;;;;3.40;1.13;;;15.60;86.00;;;;;;5066746;28;20103;-76
2022/11/08 02:29:54;;;;;;;2.20;0.93;;;15.60;86.10;;;;;;5065831;28;20107;-76
2022/11/08 02:32:20;;;;;;;3.10;1.23;;;15.50;85.80;;;;;;5060436;28;20463;-75
2022/11/08 02:34:56;;;;;;;2.40;1.00;;;15.60;85.90;;;;;;5065476;28;20033;-76
2022/11/08 02:37:24;;;;;;;3.17;1.30;;;15.60;85.60;;;;;;5067393;28;20039;-76
2022/11/08 02:39:49;;;;;;;3.08;1.10;;;15.60;85.30;;;;;;5065297;28;20055;-75
2022/11/08 02:42:17;;;;;;;3.40;1.17;;;15.60;85.30;;;;;;5066665;28;20105;-75
2022/11/08 02:44:44;;;;;;;2.70;0.95;;;15.60;85.50;;;;;;5066159;28;20029;-75
2022/11/08 02:47:10;;;;;;;1.95;0.90;;;15.60;85.50;;;;;;5065388;28;20025;-75
2022/11/08 02:49:35;;;;;;;3.63;1.10;;;15.60;85.80;;;;;;5066575;28;20029;-75
2022/11/08 02:52:01;;;;;;;2.33;0.95;;;15.60;86.00;;;;;;5066866;28;20034;-75
2022/11/08 02:54:26;;;;;;;2.55;1.05;;;15.60;86.00;;;;;;5064733;28;20032;-75
2022/11/08 02:56:52;;;;;;;3.70;1.10;;;15.60;86.10;;;;;;5053300;28;20048;-75
2022/11/08 02:59:17;;;;;;;3.28;1.10;;;15.50;86.10;;;;;;5062539;28;20512;-75
2022/11/08 03:01:44;;;;;;;3.13;1.00;;;15.50;86.10;;;;;;5062151;28;20481;-75
2022/11/08 03:04:09;;;;;;;2.92;1.17;;;15.50;86.10;;;;;;5056433;28;20040;-75
2022/11/08 03:06:35;;;;;;;3.80;1.05;;;15.50;85.80;;;;;;5066102;28;20024;-75
2022/11/08 03:09:01;;;;;;;2.25;1.00;;;15.50;86.10;;;;;;5066572;28;20438;-76
2022/11/08 03:11:27;;;;;;;2.45;1.00;;;15.50;86.30;;;;;;5066349;28;20101;-76
2022/11/08 03:13:52;;;;;;;3.53;1.10;;;15.50;85.80;;;;;;5065843;28;20043;-76
2022/11/08 03:16:18;;;;;;;2.05;0.90;;;15.40;85.90;;;;;;5054385;28;20136;-75
2022/11/08 03:18:43;;;;;;;3.22;1.25;;;15.50;85.80;;;;;;5046063;28;20037;-75
2022/11/08 03:21:09;;;;;;;2.45;1.00;;;15.50;85.90;;;;;;5046123;28;20025;-76
2022/11/08 03:23:34;;;;;;;3.08;1.02;;;15.50;85.90;;;;;;5060859;28;20029;-75
2022/11/08 03:26:01;;;;;;;3.42;1.33;;;15.50;86.00;;;;;;5061299;28;20121;-75
2022/11/08 03:28:27;;;;;;;3.08;1.00;;;15.50;86.00;;;;;;5061296;28;20080;-75
2022/11/08 03:30:53;;;;;;;2.70;1.00;;;15.50;85.80;;;;;;5061314;28;20021;-76
2022/11/08 03:33:19;;;;;;;2.45;0.95;;;15.40;86.10;;;;;;5060828;28;20032;-76
2022/11/08 03:35:47;;;;;;;2.65;1.10;;;15.50;85.70;;;;;;5045735;28;20032;-76
2022/11/08 03:38:13;;;;;;;2.75;1.20;;;15.50;86.20;;;;;;5060895;28;20035;-76
2022/11/08 03:40:39;;;;;;;3.90;0.90;;;15.50;86.20;;;;;;5061169;28;20029;-76
2022/11/08 03:43:04;;;;;;;1.67;0.95;;;15.50;86.20;;;;;;5060743;28;20033;-76
2022/11/08 03:45:30;;;;;;;3.03;1.10;;;15.50;85.60;;;;;;5049144;28;20040;-75
2022/11/08 03:47:55;;;;;;;2.38;0.90;;;15.50;85.40;;;;;;5065269;28;20078;-75
2022/11/08 03:50:21;;;;;;;2.67;1.00;;;15.60;85.40;;;;;;5065770;28;20032;-76
2022/11/08 03:52:52;;;;;;;2.55;1.00;;;15.60;85.20;;;;;;5065253;28;20028;-76
2022/11/08 03:55:19;;;;;;;1.88;0.88;;;15.60;85.50;;;;;;5063960;28;20028;-76
2022/11/08 03:57:47;;;;;;;1.73;0.90;;;15.60;85.70;;;;;;5064002;28;20096;-77
2022/11/08 04:00:15;;;;;;;2.13;1.00;;;15.60;86.00;;;;;;5064277;28;20047;-76
2022/11/08 04:02:41;;;;;;;1.90;0.88;;;15.60;86.10;;;;;;5057485;28;20043;-76
2022/11/08 04:05:08;;;;;;;2.70;0.98;;;15.50;86.10;;;;;;5060882;28;20037;-76
2022/11/08 04:07:34;;;;;;;2.83;1.10;;;15.50;86.10;;;;;;5048272;28;20025;-76
2022/11/08 04:10:00;;;;;;;2.88;1.10;;;15.50;86.10;;;;;;5046085;28;20032;-77
2022/11/08 04:15:13;;;;;;;3.53;0.90;;;15.50;86.20;;;;;;5046286;28;20400;-76
2022/11/08 04:23:25;;;;;;;2.90;1.10;;;15.50;86.30;;;;;;5047760;28;20820;-77
2022/11/08 04:25:58;;;;;;;2.55;1.00;;;15.50;86.30;;;;;;5056878;28;20044;-75
2022/11/08 04:28:26;;;;;;;2.78;1.00;;;15.50;86.20;;;;;;5046775;28;20539;-76
2022/11/08 04:30:55;;;;;;;2.33;0.90;;;15.50;86.30;;;;;;5065272;28;20052;-76
2022/11/08 04:33:22;;;;;;;2.58;1.08;;;15.50;86.30;;;;;;5097165;28;20024;-77
2022/11/08 04:35:48;;;;;;;1.83;0.80;;;15.50;86.30;;;;;;5047176;28;20480;-76
2022/11/08 04:38:14;;;;;;;2.20;1.10;;;15.50;86.20;;;;;;5044909;28;20032;-75
2022/11/08 04:40:39;;;;;;;2.42;0.93;;;15.50;86.20;;;;;;5043624;28;20017;-76
2022/11/08 04:43:05;;;;;;;2.70;1.00;;;15.50;86.30;;;;;;5055822;28;20035;-76
2022/11/08 04:45:30;;;;;;;2.30;1.00;;;15.50;86.30;;;;;;5048297;28;20090;-76
2022/11/08 04:47:56;;;;;;;2.58;1.00;;;15.50;86.40;;;;;;5063755;28;20071;-75
2022/11/08 04:50:21;;;;;;;2.83;1.27;;;15.50;86.40;;;;;;5063668;28;20170;-76
2022/11/08 04:52:54;;;;;;;2.88;1.10;;;15.50;86.20;;;;;;5055739;28;20037;-76
2022/11/08 04:55:21;;;;;;;2.47;1.02;;;15.50;85.70;;;;;;5043506;28;20029;-76
2022/11/08 04:57:47;;;;;;;2.38;0.90;;;15.60;85.90;;;;;;5044541;28;20032;-75
2022/11/08 05:00:14;;;;;;;2.45;0.90;;;15.60;85.70;;;;;;5045339;28;20452;-76
2022/11/08 05:02:39;;;;;;;1.85;0.80;;;15.60;85.70;;;;;;5055561;28;20706;-76
2022/11/08 05:05:05;;;;;;;1.67;0.85;;;15.60;85.70;;;;;;5044705;28;20044;-76
2022/11/08 05:07:31;;;;;;;2.85;1.00;;;15.60;85.90;;;;;;5043365;28;20029;-76
2022/11/08 05:09:57;;;;;;;2.85;1.00;;;15.50;85.90;;;;;;5044759;28;20039;-75
2022/11/08 05:12:22;;;;;;;2.38;0.90;;;15.50;85.90;;;;;;5048812;28;20107;-76
2022/11/08 05:14:48;;;;;;;1.48;0.90;;;15.60;86.00;;;;;;5057595;28;20055;-76
2022/11/08 05:17:13;;;;;;;3.13;1.08;;;15.50;85.90;;;;;;5049884;28;20037;-79
2022/11/08 05:25:07;;;;;;;2.55;1.02;;;15.50;86.10;;;;;;5048791;28;20047;-76
2022/11/08 05:27:33;;;;;;;3.17;1.00;;;15.50;85.70;;;;;;5055191;28;20037;-78
2022/11/08 05:29:59;;;;;;;2.03;0.90;;;15.40;85.90;;;;;;5066359;28;20051;-77
2022/11/08 05:32:24;;;;;;;2.00;0.90;;;15.50;85.90;;;;;;5065935;28;20032;-77
2022/11/08 05:34:50;;;;;;;1.70;0.90;;;15.50;86.00;;;;;;5070248;28;20036;-77
2022/11/08 05:37:16;;;;;;;2.08;0.82;;;15.50;86.00;;;;;;5067077;28;20044;-77
2022/11/08 05:39:41;;;;;;;3.45;1.17;;;15.50;85.80;;;;;;5059707;28;20032;-76
2022/11/08 05:42:07;;;;;;;2.00;1.00;;;15.50;85.80;;;;;;5049339;28;20031;-76
2022/11/08 05:44:32;;;;;;;2.45;0.95;;;15.50;85.70;;;;;;5054321;28;20067;-77
2022/11/08 05:46:58;;;;;;;1.35;0.80;;;15.50;85.90;;;;;;5064447;28;20017;-76
2022/11/08 05:49:23;;;;;;;2.40;1.08;;;15.50;85.70;;;;;;5067194;28;20028;-76
2022/11/08 05:51:49;;;;;;;2.78;1.02;;;15.50;85.70;;;;;;5067797;28;20066;-76
2022/11/08 05:54:15;;;;;;;1.60;0.80;;;15.40;85.70;;;;;;5063614;28;20028;-75
2022/11/08 05:56:40;;;;;;;2.40;0.90;;;15.50;85.70;;;;;;5064626;28;20020;-75
2022/11/08 05:59:06;;;;;;;2.15;1.00;;;15.40;85.70;;;;;;5065957;28;20147;-75
2022/11/08 06:01:31;;;;;;;1.35;0.90;;;15.50;85.30;;;;;;5067009;28;20435;-75
2022/11/08 06:03:57;;;;;;;2.53;0.90;;;15.50;85.30;;;;;;5066426;28;20500;-75
2022/11/08 06:06:22;;;;;;;4.03;1.10;;;15.50;85.40;;;;;;5067184;28;20863;-76
2022/11/08 06:08:48;;;;;;;2.78;1.00;;;15.50;85.00;;;;;;5066737;28;20021;-75
2022/11/08 06:11:17;;;;;;;3.15;1.15;;;15.60;85.20;;;;;;5066973;28;20024;-76
2022/11/08 06:13:43;;;;;;;2.08;0.98;;;15.50;84.80;;;;;;5058972;28;20090;-76
2022/11/08 06:16:11;;;;;;;2.03;0.90;;;15.50;85.40;;;;;;5047917;28;20037;-76
2022/11/08 06:18:37;;;;;;;3.35;1.10;;;15.60;85.60;;;;;;5054013;28;20040;-76
2022/11/08 06:21:05;;;;;;;3.33;1.23;;;15.50;85.50;;;;;;5065709;28;20031;-76
2022/11/08 06:23:31;;;;;;;2.53;1.13;;;15.50;85.60;;;;;;5065052;28;20036;-76
2022/11/08 06:25:57;;;;;;;2.38;0.93;;;15.50;85.40;;;;;;5064939;28;20036;-80
2022/11/08 06:28:23;;;;;;;2.47;0.90;;;15.50;85.50;;;;;;5064984;28;20045;-76
2022/11/08 06:30:49;;;;;;;1.70;0.80;;;15.40;86.10;;;;;;5065560;28;20492;-76
2022/11/08 06:33:15;;;;;;;1.65;0.80;;;15.50;85.50;;;;;;5066952;28;20492;-75
2022/11/08 06:35:41;;;;;;;1.65;0.90;;;15.60;85.70;;;;;;5063473;28;20090;-75
2022/11/08 06:38:07;;;;;;;2.78;0.82;;;15.40;85.60;;;;;;5063913;28;20044;-76
2022/11/08 06:40:33;;;;;;;3.40;1.00;;;15.40;85.40;;;;;;5058572;28;20028;-76
2022/11/08 06:42:59;;;;;;;3.35;1.02;;;15.50;85.40;;;;;;5061249;28;20507;-76
2022/11/08 06:45:25;;;;;;;3.33;1.08;;;15.40;85.00;;;;;;5063761;28;20025;-75
2022/11/08 06:47:58;;;;;;;4.47;1.00;;;15.40;85.20;;;;;;5060886;28;20034;-76
2022/11/08 06:50:24;;;;;;;5.47;1.05;;;15.50;85.20;;;;;;5064642;28;20108;-77
2022/11/08 06:53:01;;;;;;;1.23;0.80;;;15.50;85.00;;;;;;5066916;28;20139;-76
2022/11/08 06:55:27;;;;;;;3.95;0.90;;;15.50;85.20;;;;;;5065970;28;20090;-75
2022/11/08 06:57:53;;;;;;;4.18;0.98;;;15.40;84.80;;;;;;5064408;28;20404;-76
2022/11/08 07:00:19;;;;;;;5.65;0.95;;;15.50;84.60;;;;;;5064941;28;20044;-77
2022/11/08 07:02:57;;;;;;;3.97;0.90;;;15.50;84.70;;;;;;5064417;28;20035;-77
2022/11/08 07:05:24;;;;;;;2.30;0.98;;;15.50;84.90;;;;;;5106975;28;20063;-84
2022/11/08 07:07:52;;;;;;;1.42;0.85;;;15.50;85.20;;;;;;5103937;28;20039;-75
2022/11/08 07:10:20;;;;;;;3.60;0.90;;;15.50;85.10;;;;;;5064466;28;20024;-75
2022/11/08 07:12:46;;;;;;;2.70;0.90;;;15.50;84.90;;;;;;5066234;28;20036;-75
2022/11/08 07:15:13;;;;;;;3.17;1.00;;;15.60;84.90;;;;;;5053825;28;20029;-76
2022/11/08 07:17:38;;;;;;;2.67;1.00;;;15.70;84.70;;;;;;5060123;28;20025;-75
2022/11/08 07:20:05;;;;;;;1.88;1.00;;;15.70;84.10;;;;;;5060777;28;20311;-76
2022/11/08 07:22:30;;;;;;;6.30;1.10;;;15.70;84.00;;;;;;5044626;28;20025;-76
2022/11/08 07:24:56;;;;;;;4.47;1.27;;;15.70;83.80;;;;;;5060529;28;20029;-76
2022/11/08 07:27:21;;;;;;;3.80;1.20;;;15.70;84.00;;;;;;5045541;28;20207;-77
2022/11/08 07:29:47;;;;;;;2.50;0.95;;;15.80;84.10;;;;;;5045828;28;20112;-76
2022/11/08 07:32:12;;;;;;;2.33;1.08;;;15.70;84.10;;;;;;5045963;28;20221;-76
2022/11/08 07:34:38;;;;;;;2.17;1.00;;;15.70;84.20;;;;;;5060391;28;20511;-76
2022/11/08 07:37:03;;;;;;;2.35;1.00;;;15.70;84.20;;;;;;5045494;28;20032;-76
2022/11/08 07:39:28;;;;;;;3.15;1.00;;;15.80;84.70;;;;;;5060971;28;20041;-76
2022/11/08 07:41:54;;;;;;;3.13;0.98;;;15.80;83.80;;;;;;5059800;28;20025;-76
2022/11/08 07:44:20;;;;;;;3.22;1.25;;;15.90;83.70;;;;;;5045044;28;20373;-76
2022/11/08 07:46:45;;;;;;;4.05;1.10;;;15.90;83.70;;;;;;5045166;28;20029;-76
2022/11/08 07:49:11;;;;;;;1.90;0.82;;;16.00;83.60;;;;;;5045270;28;20032;-76
2022/11/08 07:51:36;;;;;;;2.15;0.90;;;16.00;83.40;;;;;;5060619;28;20503;-76
2022/11/08 07:54:02;;;;;;;2.70;1.00;;;16.00;83.40;;;;;;5044978;28;20025;-76
2022/11/08 07:56:27;;;;;;;1.77;1.00;;;16.00;83.10;;;;;;5045061;28;20045;-76
2022/11/08 07:58:53;;;;;;;2.30;0.95;;;16.10;83.20;;;;;;5045028;28;20087;-76
2022/11/08 08:01:18;;;;;;;1.83;0.80;;;16.10;83.00;;;;;;5060375;28;20840;-76
2022/11/08 08:03:44;;;;;;;2.47;0.90;;;16.00;83.00;;;;;;5059987;28;20051;-76
2022/11/08 08:06:10;;;;;;;2.42;1.05;;;16.10;82.90;;;;;;5060448;28;20075;-76
2022/11/08 08:08:35;;;;;;;1.95;1.10;;;16.00;83.00;;;;;;5044823;28;20032;-76
2022/11/08 08:11:02;;;;;;;2.88;0.93;;;16.00;83.10;;;;;;5044917;28;20082;-76
2022/11/08 08:13:28;;;;;;;3.15;1.05;;;16.00;82.90;;;;;;5059903;28;20043;-77
2022/11/08 08:15:57;;;;;;;3.72;1.00;;;16.00;83.20;;;;;;5060151;28;20051;-77
2022/11/08 08:18:23;;;;;;;2.25;0.90;;;16.10;83.50;;;;;;5060270;28;20031;-76
2022/11/08 08:20:48;;;;;;;2.05;0.80;;;16.10;83.40;;;;;;5044741;28;20025;-77
2022/11/08 08:23:14;;;;;;;3.15;0.98;;;16.10;83.10;;;;;;5060019;28;20035;-77
2022/11/08 08:25:39;;;;;;;2.25;0.90;;;16.20;82.90;;;;;;5059855;28;20305;-76
2022/11/08 08:28:05;;;;;;;1.60;0.90;;;16.30;82.80;;;;;;5060239;28;20520;-76
2022/11/08 08:30:31;;;;;;;1.75;0.90;;;16.20;83.00;;;;;;5059896;28;20683;-76
2022/11/08 08:33:09;;;;;;;2.55;0.93;;;16.20;82.50;;;;;;5044329;28;20112;-76
2022/11/08 08:35:36;;;;;;;1.73;0.90;;;16.30;82.60;;;;;;5044624;28;20029;-76
2022/11/08 08:38:02;;;;;;;2.95;0.93;;;16.30;82.30;;;;;;5060573;28;20048;-77
2022/11/08 08:40:27;;;;;;;2.17;1.10;;;16.30;82.20;;;;;;5044604;28;20373;-76
2022/11/08 08:42:53;;;;;;;3.15;1.20;;;16.30;82.20;;;;;;5059686;28;20029;-76
2022/11/08 08:45:19;;;;;;;2.53;1.05;;;16.30;82.30;;;;;;5059772;28;20035;-76
2022/11/08 08:47:50;;;;;;;2.85;0.90;;;16.30;82.40;;;;;;5044703;28;20429;-76
2022/11/08 08:50:16;;;;;;;1.83;1.00;;;16.30;82.40;;;;;;5059992;28;20409;-76
2022/11/08 08:52:41;;;;;;;1.92;1.08;;;16.30;82.60;;;;;;5045282;28;20025;-76
2022/11/08 08:55:07;;;;;;;2.92;0.90;;;16.30;82.60;;;;;;5063818;28;20029;-75
2022/11/08 08:57:33;;;;;;;1.63;0.90;;;16.30;82.50;;;;;;5048109;28;20043;-75
2022/11/08 08:59:58;;;;;;;3.05;1.10;;;16.30;82.30;;;;;;5048621;28;20056;-76
2022/11/08 09:02:24;;;;;;;2.85;0.85;;;16.30;82.40;;;;;;5063674;28;20040;-76
2022/11/08 09:04:49;;;;;;;2.30;0.77;;;16.30;82.30;;;;;;5063345;28;20029;-76
2022/11/08 09:07:15;;;;;;;2.13;0.90;;;16.30;82.40;;;;;;5048131;28;20025;-76
2022/11/08 09:09:40;;;;;;;2.17;1.02;;;16.30;82.40;;;;;;5048154;28;20126;-76
2022/11/08 09:12:06;;;;;;;2.45;1.02;;;16.40;82.50;;;;;;5063540;28;20083;-75
2022/11/08 09:14:32;;;;;;;2.08;1.00;;;16.40;82.30;;;;;;5063288;28;20441;-76
2022/11/08 09:16:57;;;;;;;2.47;0.95;;;16.50;82.40;;;;;;5048105;28;20025;-76
2022/11/08 09:19:23;;;;;;;2.60;1.00;;;16.50;82.10;;;;;;5063294;28;20025;-75
2022/11/08 09:21:48;;;;;;;1.70;0.80;;;16.50;82.10;;;;;;5063409;28;20025;-76
2022/11/08 09:24:14;;;;;;;1.70;0.90;;;16.60;82.10;;;;;;5047056;28;20286;-76
2022/11/08 09:26:39;;;;;;;2.78;1.00;;;16.60;81.90;;;;;;5047880;28;20033;-76
2022/11/08 09:29:05;;;;;;;1.55;0.93;;;16.70;81.90;;;;;;5047678;28;20040;-76
2022/11/08 09:31:30;;;;;;;2.13;0.80;;;16.70;81.70;;;;;;5047720;28;20029;-76
2022/11/08 09:33:56;;;;;;;1.40;0.80;;;16.80;81.60;;;;;;5062897;28;20038;-75
2022/11/08 09:36:21;;;;;;;3.33;1.30;;;16.80;81.60;;;;;;5047971;28;20032;-76
2022/11/08 09:38:47;;;;;;;1.73;0.90;;;16.80;81.50;;;;;;5047731;28;20025;-76
2022/11/08 09:41:27;;;;;;;2.08;0.80;;;16.70;81.60;;;;;;5047418;28;20428;-76
2022/11/08 09:44:08;;;;;;;2.42;0.98;;;16.70;81.70;;;;;;5062656;28;20481;-76
2022/11/08 09:46:49;;;;;;;2.00;0.85;;;16.70;81.90;;;;;;5055943;28;20269;-75
2022/11/08 09:49:20;;;;;;;1.85;0.70;;;16.60;82.10;;;;;;5067129;28;20485;-76
2022/11/08 09:51:47;;;;;;;2.20;0.70;;;16.60;82.30;;;;;;5065662;28;20039;-76
2022/11/08 09:54:40;;;;;;;3.50;0.90;;;16.50;82.40;;;;;;5066885;28;20055;-76
2022/11/08 09:57:16;;;;;;;2.17;0.80;;;16.50;82.50;;;;;;5062046;28;20036;-76
2022/11/08 09:59:51;;;;;;;1.60;0.82;;;16.50;82.60;;;;;;5067297;28;20386;-76
2022/11/08 10:02:22;;;;;;;1.88;0.90;;;16.50;82.70;;;;;;5066342;28;20028;-76
2022/11/08 10:04:58;;;;;;;1.48;0.80;;;16.50;82.80;;;;;;5064688;28;20032;-76
2022/11/08 10:07:30;;;;;;;2.80;0.90;;;16.30;82.70;;;;;;5065797;28;20078;-77
2022/11/08 10:10:07;;;;;;;1.65;0.80;;;16.40;82.80;;;;;;5065853;28;20024;-75
2022/11/08 10:12:51;;;;;;;1.65;0.80;;;16.40;82.80;;;;;;5066849;28;20033;-76
2022/11/08 10:15:42;;;;;;;1.73;0.90;;;16.50;82.90;;;;;;5065484;28;20047;-76
2022/11/08 10:18:30;;;;;;;1.80;0.77;;;16.40;82.90;;;;;;5065549;28;20028;-75
2022/11/08 10:21:20;;;;;;;1.90;0.93;;;16.40;82.90;;;;;;5066750;28;20036;-76
2022/11/08 10:23:56;;;;;;;;;;;16.40;82.90;;;;;;5065545;28;20483;-76
2022/11/08 10:26:29;;;;;;;1.33;0.85;;;16.40;82.90;;;;;;5067221;28;20246;-77
2022/11/08 10:29:05;;;;;;;1.50;0.80;;;16.40;83.00;;;;;;5065566;28;20063;-75
2022/11/08 10:31:34;;;;;;;1.67;0.80;;;16.40;83.10;;;;;;5066733;28;20028;-76
2022/11/08 10:34:02;;;;;;;1.42;0.80;;;16.40;83.10;;;;;;5066343;28;20176;-75
2022/11/08 10:36:46;;;;;;;1.63;0.90;;;16.50;82.90;;;;;;5065135;28;20039;-76
2022/11/08 10:39:20;;;;;;;1.25;0.80;;;16.40;82.80;;;;;;5066515;28;20048;-76
2022/11/08 10:41:54;;;;;;;1.70;0.90;;;16.50;82.80;;;;;;5065277;28;20028;-76
2022/11/08 10:44:23;;;;;;;1.40;0.90;;;16.50;82.70;;;;;;5065991;28;20040;-76
2022/11/08 10:47:00;;;;;;;1.92;1.05;;;16.50;82.80;;;;;;5066063;28;20020;-76
2022/11/08 10:49:26;;;;;;;1.52;0.90;;;16.40;82.80;;;;;;5066380;28;20028;-76
2022/11/08 10:51:54;;;;;;;1.15;0.73;;;16.40;82.90;;;;;;5065949;28;20032;-76
2022/11/08 10:54:52;;;;;;;2.22;0.90;;;16.40;83.00;;;;;;5064430;28;20025;-76
2022/11/08 10:57:26;;;;;;;1.75;0.90;;;16.40;83.10;;;;;;5066413;28;20514;-76
2022/11/08 10:59:53;;;;;;;1.77;1.10;;;16.40;83.10;;;;;;5065918;28;20036;-76
2022/11/08 11:02:22;;;;;;;1.60;0.90;;;16.40;83.20;;;;;;5064765;28;20032;-76
2022/11/08 11:04:48;;;;;;;1.40;0.73;;;16.30;83.30;;;;;;5066082;28;20035;-76
2022/11/08 11:07:27;;;;;;;1.92;0.85;;;16.40;83.40;;;;;;5065852;28;20480;-75
2022/11/08 11:09:53;;;;;;;1.83;0.80;;;16.40;83.50;;;;;;5064451;28;20055;-76
2022/11/08 11:12:19;;;;;;;1.48;0.65;;;16.30;83.60;;;;;;5065768;28;20032;-77
2022/11/08 11:14:45;;;;;;;1.65;0.73;;;16.30;83.60;;;;;;5065442;28;20040;-76
2022/11/08 11:17:16;;;;;;;1.98;0.80;;;16.30;83.60;;;;;;5065906;28;20047;-76
2022/11/08 11:19:53;;;;;;;1.42;0.75;;;16.30;83.60;;;;;;5064586;28;20050;-75
2022/11/08 11:22:31;;;;;;;1.55;0.90;;;16.30;83.70;;;;;;5065525;28;20028;-76
2022/11/08 11:25:04;;;;;;;1.27;0.88;;;16.30;83.60;;;;;;5065282;28;20033;-75
2022/11/08 11:27:33;;;;;;;2.10;0.98;;;16.30;83.60;;;;;;5065233;28;20056;-76
2022/11/08 11:30:21;;;;;;;1.38;0.80;;;16.30;84.20;;;;;;5065411;28;20029;-76
2022/11/08 11:32:58;;;;;;;1.90;0.80;;;16.30;83.70;;;;;;5063971;28;20070;-75
2022/11/08 11:35:27;;;;;;;2.03;0.80;;;16.30;84.30;;;;;;5065630;28;20029;-76
2022/11/08 11:37:57;;;;;;;1.52;0.80;;;16.30;83.70;;;;;;5065483;28;20115;-75
2022/11/08 11:40:44;;;;;;;1.30;0.75;;;16.30;83.60;;;;;;5063842;28;20024;-76
2022/11/08 11:44:04;;;;;;;1.40;0.90;;;16.30;83.50;;;;;;5064792;28;20195;-75
2022/11/08 11:46:55;;;;;;;1.33;0.73;;;16.30;83.50;;;;;;5062392;28;20107;-76
2022/11/08 11:49:23;;;;;;;1.17;0.68;;;16.40;83.40;;;;;;5063825;28;20399;-76
2022/11/08 11:51:53;;;;;;;1.52;0.70;;;16.40;83.20;;;;;;5065046;28;20373;-76
2022/11/08 11:54:20;;;;;;;1.48;0.70;;;16.30;83.20;;;;;;5063412;28;20244;-76
2022/11/08 11:57:11;;;;;;;1.60;0.80;;;16.30;83.20;;;;;;5063786;28;20028;-76
2022/11/08 12:00:06;;;;;;;1.38;0.70;;;16.30;83.40;;;;;;5064924;28;20514;-76
2022/11/08 12:03:06;;;;;;;2.03;0.77;;;16.30;83.60;;;;;;5063758;28;20074;-76
2022/11/08 12:05:48;;;;;;;0.82;0.70;;;16.30;83.80;;;;;;5063745;28;20399;-75
2022/11/08 12:08:44;;;;;;;2.08;0.77;;;16.20;83.80;;;;;;5063678;28;20032;-76
2022/11/08 12:11:28;;;;;;;1.40;0.80;;;16.20;83.90;;;;;;5064921;28;20040;-76
2022/11/08 12:14:17;;;;;;;1.63;0.82;;;16.20;84.00;;;;;;5064413;28;20548;-75
2022/11/08 12:16:46;;;;;;;1.00;0.68;;;16.20;84.10;;;;;;5063944;28;20100;-76
2022/11/08 12:19:40;;;;;;;1.77;0.75;;;16.10;84.00;;;;;;5064865;28;20024;-76
2022/11/08 12:22:20;;;;;;;0.73;0.60;;;16.10;84.00;;;;;;5064723;28;20085;-76
2022/11/08 12:25:29;;;;;;;1.40;0.70;;;16.00;84.10;;;;;;5064491;28;20028;-76
2022/11/08 12:28:24;;;;;;;1.45;0.80;;;16.10;84.20;;;;;;5062510;28;20035;-76
2022/11/08 12:31:18;;;;;;;1.95;0.80;;;16.10;84.20;;;;;;5053908;28;20041;-76
2022/11/08 12:34:02;;;;;;;1.38;0.70;;;16.10;84.20;;;;;;5063055;28;20516;-76
2022/11/08 12:36:37;;;;;;;1.27;0.70;;;16.10;84.30;;;;;;5064553;28;20039;-76
2022/11/08 12:39:24;;;;;;;1.20;0.70;;;16.10;84.30;;;;;;5063695;28;20210;-76
2022/11/08 12:42:27;;;;;;;2.45;0.90;;;16.10;84.30;;;;;;5063416;28;20557;-76
2022/11/08 12:45:11;;;;;;;1.70;0.70;;;16.10;84.30;;;;;;5064147;28;20557;-76
2022/11/08 12:47:48;;;;;;;1.73;0.82;;;16.10;84.20;;;;;;5064493;28;20075;-76
2022/11/08 12:50:54;;;;;;;1.38;0.77;;;16.10;83.90;;;;;;5063013;28;20056;-76
2022/11/08 12:53:38;;;;;;;1.20;0.77;;;16.10;84.00;;;;;;5064193;28;20399;-76
2022/11/08 12:56:11;;;;;;;1.67;0.93;;;16.20;83.70;;;;;;5063052;28;20044;-76
2022/11/08 12:58:55;;;;;;;0.80;0.60;;;16.20;83.70;;;;;;5064974;28;20533;-77
2022/11/08 13:01:22;;;;;;;1.10;0.80;;;16.20;83.70;;;;;;5064691;28;20025;-76
2022/11/08 13:03:50;;;;;;;2.13;1.00;;;16.20;83.60;;;;;;5063919;28;20097;-76
2022/11/08 13:06:40;;;;;;;1.90;0.90;;;16.20;83.70;;;;;;5064210;28;20040;-75
2022/11/08 13:09:21;;;;;;;0.82;0.70;;;16.20;83.90;;;;;;5062799;28;20035;-75
2022/11/08 13:12:18;;;;;;;1.25;0.75;;;16.10;84.00;;;;;;5064236;28;20078;-75
2022/11/08 13:14:44;;;;;;;1.05;0.60;;;16.10;84.10;;;;;;5063926;28;20040;-76
2022/11/08 13:17:25;;;;;;;1.05;0.65;;;16.10;84.30;;;;;;5064226;28;20040;-76
2022/11/08 13:19:52;;;;;;;;;;;16.10;84.40;;;;;;5063390;28;20036;-75
2022/11/08 13:22:30;;;;;;;1.35;0.88;;;16.10;84.50;;;;;;5062796;28;20368;-75
2022/11/08 13:25:20;;;;;;;0.90;0.55;;;16.00;84.60;;;;;;5064227;28;20280;-76
2022/11/08 13:27:47;;;;;;;1.67;0.70;;;16.10;84.70;;;;;;5058827;28;20028;-76